sensor_id;sensor_type;location;lat;lon;timestamp;temperature;humidity
52125;DHT22;38119;52.710;6.398;2023-02-10T00:02:23;2.00;99.90
52125;DHT22;38119;52.710;6.398;2023-02-10T00:04:49;2.00;99.90
52125;DHT22;38119;52.710;6.398;2023-02-10T00:07:17;2.00;99.90
52125;DHT22;38119;52.710;6.398;2023-02-10T00:09:42;2.00;99.90
52125;DHT22;38119;52.710;6.398;2023-02-10T00:12:08;2.00;99.90
52125;DHT22;38119;52.710;6.398;2023-02-10T00:14:35;2.00;99.90
52125;DHT22;38119;52.710;6.398;2023-02-10T00:17:01;2.00;99.90
52125;DHT22;38119;52.710;6.398;2023-02-10T00:19:27;1.90;99.90
52125;DHT22;38119;52.710;6.398;2023-02-10T00:21:53;1.90;99.90
52125;DHT22;38119;52.710;6.398;2023-02-10T00:24:20;1.90;99.90
52125;DHT22;38119;52.710;6.398;2023-02-10T00:26:47;1.90;99.90
52125;DHT22;38119;52.710;6.398;2023-02-10T00:29:13;1.90;99.90
52125;DHT22;38119;52.710;6.398;2023-02-10T00:31:40;1.90;99.90
52125;DHT22;38119;52.710;6.398;2023-02-10T00:34:06;1.90;99.90
52125;DHT22;38119;52.710;6.398;2023-02-10T00:36:33;1.90;99.90
52125;DHT22;38119;52.710;6.398;2023-02-10T00:38:58;1.90;99.90
52125;DHT22;38119;52.710;6.398;2023-02-10T00:41:24;1.90;99.90
52125;DHT22;38119;52.710;6.398;2023-02-10T00:43:51;1.90;99.90
52125;DHT22;38119;52.710;6.398;2023-02-10T00:46:18;1.80;99.90
52125;DHT22;38119;52.710;6.398;2023-02-10T00:48:44;1.80;99.90
52125;DHT22;38119;52.710;6.398;2023-02-10T00:51:11;1.80;99.90
52125;DHT22;38119;52.710;6.398;2023-02-10T00:53:37;1.80;99.90
52125;DHT22;38119;52.710;6.398;2023-02-10T00:56:03;1.80;99.90
52125;DHT22;38119;52.710;6.398;2023-02-10T00:58:29;1.80;99.90
52125;DHT22;38119;52.710;6.398;2023-02-10T01:00:55;1.80;99.90
52125;DHT22;38119;52.710;6.398;2023-02-10T01:03:22;1.80;99.90
52125;DHT22;38119;52.710;6.398;2023-02-10T01:05:47;1.80;99.90
52125;DHT22;38119;52.710;6.398;2023-02-10T01:08:14;1.80;99.90
52125;DHT22;38119;52.710;6.398;2023-02-10T01:10:39;1.80;99.90
52125;DHT22;38119;52.710;6.398;2023-02-10T01:13:07;1.80;99.90
52125;DHT22;38119;52.710;6.398;2023-02-10T01:15:33;1.80;99.90
52125;DHT22;38119;52.710;6.398;2023-02-10T01:17:59;1.80;99.90
52125;DHT22;38119;52.710;6.398;2023-02-10T01:20:25;1.80;99.90
52125;DHT22;38119;52.710;6.398;2023-02-10T01:22:51;1.80;99.90
52125;DHT22;38119;52.710;6.398;2023-02-10T01:25:17;1.70;99.90
52125;DHT22;38119;52.710;6.398;2023-02-10T01:27:43;1.70;99.90
52125;DHT22;38119;52.710;6.398;2023-02-10T01:30:09;1.80;99.90
52125;DHT22;38119;52.710;6.398;2023-02-10T01:32:35;1.80;99.90
52125;DHT22;38119;52.710;6.398;2023-02-10T01:35:00;1.80;99.90
52125;DHT22;38119;52.710;6.398;2023-02-10T01:37:26;1.80;99.90
52125;DHT22;38119;52.710;6.398;2023-02-10T01:39:52;1.70;99.90
52125;DHT22;38119;52.710;6.398;2023-02-10T01:42:17;1.80;99.90
52125;DHT22;38119;52.710;6.398;2023-02-10T01:47:09;1.70;99.90
52125;DHT22;38119;52.710;6.398;2023-02-10T01:49:38;1.70;99.90
52125;DHT22;38119;52.710;6.398;2023-02-10T01:52:11;1.70;99.90
52125;DHT22;38119;52.710;6.398;2023-02-10T01:54:59;1.70;99.90
52125;DHT22;38119;52.710;6.398;2023-02-10T01:57:27;1.70;99.90
52125;DHT22;38119;52.710;6.398;2023-02-10T01:59:53;1.70;99.90
52125;DHT22;38119;52.710;6.398;2023-02-10T02:02:20;1.70;99.90
52125;DHT22;38119;52.710;6.398;2023-02-10T02:04:52;1.70;99.90
52125;DHT22;38119;52.710;6.398;2023-02-10T02:07:22;1.70;99.90
52125;DHT22;38119;52.710;6.398;2023-02-10T02:09:49;1.70;99.90
52125;DHT22;38119;52.710;6.398;2023-02-10T02:14:56;1.70;99.90
52125;DHT22;38119;52.710;6.398;2023-02-10T02:23:14;1.70;99.90
52125;DHT22;38119;52.710;6.398;2023-02-10T02:25:55;1.70;99.90
52125;DHT22;38119;52.710;6.398;2023-02-10T02:29:09;1.70;99.90
52125;DHT22;38119;52.710;6.398;2023-02-10T02:36:52;1.70;99.90
52125;DHT22;38119;52.710;6.398;2023-02-10T02:39:21;1.70;99.90
52125;DHT22;38119;52.710;6.398;2023-02-10T02:41:56;1.70;99.90
52125;DHT22;38119;52.710;6.398;2023-02-10T02:44:23;1.70;99.90
52125;DHT22;38119;52.710;6.398;2023-02-10T02:47:00;1.70;99.90
52125;DHT22;38119;52.710;6.398;2023-02-10T02:49:48;1.70;99.90
52125;DHT22;38119;52.710;6.398;2023-02-10T02:52:26;1.70;99.90
52125;DHT22;38119;52.710;6.398;2023-02-10T02:55:05;1.70;99.90
52125;DHT22;38119;52.710;6.398;2023-02-10T02:57:45;1.70;99.90
52125;DHT22;38119;52.710;6.398;2023-02-10T03:00:16;1.70;99.90
52125;DHT22;38119;52.710;6.398;2023-02-10T03:02:43;1.60;99.90
52125;DHT22;38119;52.710;6.398;2023-02-10T03:05:11;1.60;99.90
52125;DHT22;38119;52.710;6.398;2023-02-10T03:07:41;1.60;99.90
52125;DHT22;38119;52.710;6.398;2023-02-10T03:10:07;1.60;99.90
52125;DHT22;38119;52.710;6.398;2023-02-10T03:12:33;1.60;99.90
52125;DHT22;38119;52.710;6.398;2023-02-10T03:14:59;1.60;99.90
52125;DHT22;38119;52.710;6.398;2023-02-10T03:17:24;1.60;99.90
52125;DHT22;38119;52.710;6.398;2023-02-10T03:19:50;1.60;99.90
52125;DHT22;38119;52.710;6.398;2023-02-10T03:22:16;1.60;99.90
52125;DHT22;38119;52.710;6.398;2023-02-10T03:24:41;1.60;99.90
52125;DHT22;38119;52.710;6.398;2023-02-10T03:27:07;1.70;99.90
52125;DHT22;38119;52.710;6.398;2023-02-10T03:29:32;1.60;99.90
52125;DHT22;38119;52.710;6.398;2023-02-10T03:31:58;1.60;99.90
52125;DHT22;38119;52.710;6.398;2023-02-10T03:34:27;1.70;99.90
52125;DHT22;38119;52.710;6.398;2023-02-10T03:36:53;1.70;99.90
52125;DHT22;38119;52.710;6.398;2023-02-10T03:39:19;1.70;99.90
52125;DHT22;38119;52.710;6.398;2023-02-10T03:41:44;1.60;99.90
52125;DHT22;38119;52.710;6.398;2023-02-10T03:44:10;1.60;99.90
52125;DHT22;38119;52.710;6.398;2023-02-10T03:46:35;1.60;99.90
52125;DHT22;38119;52.710;6.398;2023-02-10T03:49:03;1.60;99.90
52125;DHT22;38119;52.710;6.398;2023-02-10T03:51:29;1.60;99.90
52125;DHT22;38119;52.710;6.398;2023-02-10T03:53:55;1.60;99.90
52125;DHT22;38119;52.710;6.398;2023-02-10T03:56:20;1.60;99.90
52125;DHT22;38119;52.710;6.398;2023-02-10T03:58:46;1.60;99.90
52125;DHT22;38119;52.710;6.398;2023-02-10T04:01:14;1.60;99.90
52125;DHT22;38119;52.710;6.398;2023-02-10T04:03:40;1.60;99.90
52125;DHT22;38119;52.710;6.398;2023-02-10T04:06:07;1.60;99.90
52125;DHT22;38119;52.710;6.398;2023-02-10T04:08:33;1.60;99.90
52125;DHT22;38119;52.710;6.398;2023-02-10T04:10:59;1.60;99.90
52125;DHT22;38119;52.710;6.398;2023-02-10T04:13:27;1.60;99.90
52125;DHT22;38119;52.710;6.398;2023-02-10T04:16:10;1.60;99.90
52125;DHT22;38119;52.710;6.398;2023-02-10T04:18:37;1.60;99.90
52125;DHT22;38119;52.710;6.398;2023-02-10T04:21:05;1.60;99.90
52125;DHT22;38119;52.710;6.398;2023-02-10T04:23:31;1.60;99.90
52125;DHT22;38119;52.710;6.398;2023-02-10T04:25:57;1.60;99.90
52125;DHT22;38119;52.710;6.398;2023-02-10T04:28:23;1.60;99.90
52125;DHT22;38119;52.710;6.398;2023-02-10T04:30:53;1.60;99.90
52125;DHT22;38119;52.710;6.398;2023-02-10T04:33:19;1.60;99.90
52125;DHT22;38119;52.710;6.398;2023-02-10T04:35:47;1.60;99.90
52125;DHT22;38119;52.710;6.398;2023-02-10T04:38:13;1.50;99.90
52125;DHT22;38119;52.710;6.398;2023-02-10T04:40:39;1.50;99.90
52125;DHT22;38119;52.710;6.398;2023-02-10T04:43:05;1.50;99.90
52125;DHT22;38119;52.710;6.398;2023-02-10T04:45:31;1.50;99.90
52125;DHT22;38119;52.710;6.398;2023-02-10T04:47:57;1.50;99.90
52125;DHT22;38119;52.710;6.398;2023-02-10T04:50:23;1.50;99.90
52125;DHT22;38119;52.710;6.398;2023-02-10T04:52:48;1.50;99.90
52125;DHT22;38119;52.710;6.398;2023-02-10T04:55:14;1.50;99.90
52125;DHT22;38119;52.710;6.398;2023-02-10T04:57:39;1.50;99.90
52125;DHT22;38119;52.710;6.398;2023-02-10T05:00:06;1.50;99.90
52125;DHT22;38119;52.710;6.398;2023-02-10T05:02:31;1.50;99.90
52125;DHT22;38119;52.710;6.398;2023-02-10T05:04:57;1.50;99.90
52125;DHT22;38119;52.710;6.398;2023-02-10T05:07:23;1.60;99.90
52125;DHT22;38119;52.710;6.398;2023-02-10T05:09:49;1.60;99.90
52125;DHT22;38119;52.710;6.398;2023-02-10T05:12:14;1.60;99.90
52125;DHT22;38119;52.710;6.398;2023-02-10T05:14:40;1.60;99.90
52125;DHT22;38119;52.710;6.398;2023-02-10T05:17:05;1.60;99.90
52125;DHT22;38119;52.710;6.398;2023-02-10T05:19:31;1.60;99.90
52125;DHT22;38119;52.710;6.398;2023-02-10T05:21:57;1.50;99.90
52125;DHT22;38119;52.710;6.398;2023-02-10T05:24:23;1.50;99.90
52125;DHT22;38119;52.710;6.398;2023-02-10T05:26:49;1.50;99.90
52125;DHT22;38119;52.710;6.398;2023-02-10T05:29:14;1.50;99.90
52125;DHT22;38119;52.710;6.398;2023-02-10T05:31:40;1.50;99.90
52125;DHT22;38119;52.710;6.398;2023-02-10T05:34:05;1.50;99.90
52125;DHT22;38119;52.710;6.398;2023-02-10T05:36:31;1.50;99.90
52125;DHT22;38119;52.710;6.398;2023-02-10T05:38:57;1.50;99.90
52125;DHT22;38119;52.710;6.398;2023-02-10T05:41:41;1.60;99.90
52125;DHT22;38119;52.710;6.398;2023-02-10T05:44:07;1.50;99.90
52125;DHT22;38119;52.710;6.398;2023-02-10T05:46:33;1.50;99.90
52125;DHT22;38119;52.710;6.398;2023-02-10T05:48:58;1.50;99.90
52125;DHT22;38119;52.710;6.398;2023-02-10T05:51:24;1.40;99.90
52125;DHT22;38119;52.710;6.398;2023-02-10T05:53:50;1.40;99.90
52125;DHT22;38119;52.710;6.398;2023-02-10T05:56:15;1.40;99.90
52125;DHT22;38119;52.710;6.398;2023-02-10T05:58:41;1.40;99.90
52125;DHT22;38119;52.710;6.398;2023-02-10T06:01:08;1.40;99.90
52125;DHT22;38119;52.710;6.398;2023-02-10T06:03:34;1.40;99.90
52125;DHT22;38119;52.710;6.398;2023-02-10T06:05:59;1.40;99.90
52125;DHT22;38119;52.710;6.398;2023-02-10T06:08:25;1.40;99.90
52125;DHT22;38119;52.710;6.398;2023-02-10T06:10:52;1.40;99.90
52125;DHT22;38119;52.710;6.398;2023-02-10T06:13:17;1.40;99.90
52125;DHT22;38119;52.710;6.398;2023-02-10T06:15:43;1.40;99.90
52125;DHT22;38119;52.710;6.398;2023-02-10T06:18:09;1.40;99.90
52125;DHT22;38119;52.710;6.398;2023-02-10T06:20:34;1.40;99.90
52125;DHT22;38119;52.710;6.398;2023-02-10T06:23:03;1.40;99.90
52125;DHT22;38119;52.710;6.398;2023-02-10T06:25:28;1.40;99.90
52125;DHT22;38119;52.710;6.398;2023-02-10T06:27:54;1.40;99.90
52125;DHT22;38119;52.710;6.398;2023-02-10T06:30:20;1.40;99.90
52125;DHT22;38119;52.710;6.398;2023-02-10T06:32:45;1.40;99.90
52125;DHT22;38119;52.710;6.398;2023-02-10T06:35:11;1.40;99.90
52125;DHT22;38119;52.710;6.398;2023-02-10T06:37:37;1.40;99.90
52125;DHT22;38119;52.710;6.398;2023-02-10T06:40:04;1.40;99.90
52125;DHT22;38119;52.710;6.398;2023-02-10T06:42:29;1.50;99.90
52125;DHT22;38119;52.710;6.398;2023-02-10T06:44:55;1.40;99.90
52125;DHT22;38119;52.710;6.398;2023-02-10T06:47:21;1.40;99.90
52125;DHT22;38119;52.710;6.398;2023-02-10T06:49:46;1.40;99.90
52125;DHT22;38119;52.710;6.398;2023-02-10T06:52:12;1.50;99.90
52125;DHT22;38119;52.710;6.398;2023-02-10T06:54:38;1.50;99.90
52125;DHT22;38119;52.710;6.398;2023-02-10T06:57:04;1.40;99.90
52125;DHT22;38119;52.710;6.398;2023-02-10T06:59:29;1.40;99.90
52125;DHT22;38119;52.710;6.398;2023-02-10T07:01:57;1.40;99.90
52125;DHT22;38119;52.710;6.398;2023-02-10T07:04:30;1.40;99.90
52125;DHT22;38119;52.710;6.398;2023-02-10T07:06:57;1.40;99.90
52125;DHT22;38119;52.710;6.398;2023-02-10T07:09:23;1.40;99.90
52125;DHT22;38119;52.710;6.398;2023-02-10T07:11:49;1.40;99.90
52125;DHT22;38119;52.710;6.398;2023-02-10T07:14:15;1.30;99.90
52125;DHT22;38119;52.710;6.398;2023-02-10T07:16:41;1.30;99.90
52125;DHT22;38119;52.710;6.398;2023-02-10T07:19:07;1.30;99.90
52125;DHT22;38119;52.710;6.398;2023-02-10T07:21:32;1.40;99.90
52125;DHT22;38119;52.710;6.398;2023-02-10T07:23:58;1.30;99.90
52125;DHT22;38119;52.710;6.398;2023-02-10T07:26:26;1.40;99.90
52125;DHT22;38119;52.710;6.398;2023-02-10T07:28:51;1.30;99.90
52125;DHT22;38119;52.710;6.398;2023-02-10T07:31:17;1.30;99.90
52125;DHT22;38119;52.710;6.398;2023-02-10T07:33:43;1.30;99.90
52125;DHT22;38119;52.710;6.398;2023-02-10T07:36:08;1.30;99.90
52125;DHT22;38119;52.710;6.398;2023-02-10T07:38:34;1.40;99.90
52125;DHT22;38119;52.710;6.398;2023-02-10T07:41:05;1.30;99.90
52125;DHT22;38119;52.710;6.398;2023-02-10T07:43:31;1.40;99.90
52125;DHT22;38119;52.710;6.398;2023-02-10T07:45:56;1.40;99.90
52125;DHT22;38119;52.710;6.398;2023-02-10T07:48:22;1.30;99.90
52125;DHT22;38119;52.710;6.398;2023-02-10T07:50:49;1.40;99.90
52125;DHT22;38119;52.710;6.398;2023-02-10T07:53:20;1.40;99.90
52125;DHT22;38119;52.710;6.398;2023-02-10T07:55:46;1.40;99.90
52125;DHT22;38119;52.710;6.398;2023-02-10T07:58:12;1.40;99.90
52125;DHT22;38119;52.710;6.398;2023-02-10T08:00:38;1.30;99.90
52125;DHT22;38119;52.710;6.398;2023-02-10T08:03:03;1.40;99.90
52125;DHT22;38119;52.710;6.398;2023-02-10T08:05:30;1.40;99.90
52125;DHT22;38119;52.710;6.398;2023-02-10T08:07:55;1.40;99.90
52125;DHT22;38119;52.710;6.398;2023-02-10T08:10:21;1.40;99.90
52125;DHT22;38119;52.710;6.398;2023-02-10T08:12:47;1.40;99.90
52125;DHT22;38119;52.710;6.398;2023-02-10T08:15:13;1.40;99.90
52125;DHT22;38119;52.710;6.398;2023-02-10T08:17:42;1.40;99.90
52125;DHT22;38119;52.710;6.398;2023-02-10T08:20:09;1.40;99.90
52125;DHT22;38119;52.710;6.398;2023-02-10T08:22:35;1.50;99.90
52125;DHT22;38119;52.710;6.398;2023-02-10T08:25:00;1.50;99.90
52125;DHT22;38119;52.710;6.398;2023-02-10T08:27:26;1.50;99.90
52125;DHT22;38119;52.710;6.398;2023-02-10T08:29:54;1.50;99.90
52125;DHT22;38119;52.710;6.398;2023-02-10T08:32:20;1.50;99.90
52125;DHT22;38119;52.710;6.398;2023-02-10T08:34:47;1.60;99.90
52125;DHT22;38119;52.710;6.398;2023-02-10T08:37:13;1.60;99.90
52125;DHT22;38119;52.710;6.398;2023-02-10T08:39:39;1.60;99.90
52125;DHT22;38119;52.710;6.398;2023-02-10T08:42:05;1.60;99.90
52125;DHT22;38119;52.710;6.398;2023-02-10T08:44:30;1.70;99.90
52125;DHT22;38119;52.710;6.398;2023-02-10T08:46:56;1.70;99.90
52125;DHT22;38119;52.710;6.398;2023-02-10T08:49:22;1.80;99.90
52125;DHT22;38119;52.710;6.398;2023-02-10T08:51:53;1.90;99.90
52125;DHT22;38119;52.710;6.398;2023-02-10T08:54:19;2.00;99.90
52125;DHT22;38119;52.710;6.398;2023-02-10T08:56:45;2.10;99.90
52125;DHT22;38119;52.710;6.398;2023-02-10T08:59:11;2.10;99.90
52125;DHT22;38119;52.710;6.398;2023-02-10T09:01:37;2.20;99.90
52125;DHT22;38119;52.710;6.398;2023-02-10T09:04:03;2.30;99.90
52125;DHT22;38119;52.710;6.398;2023-02-10T09:06:31;2.40;99.90
52125;DHT22;38119;52.710;6.398;2023-02-10T09:08:59;2.50;99.90
52125;DHT22;38119;52.710;6.398;2023-02-10T09:11:25;2.60;99.90
52125;DHT22;38119;52.710;6.398;2023-02-10T09:13:52;2.60;99.90
52125;DHT22;38119;52.710;6.398;2023-02-10T09:16:18;2.70;99.90
52125;DHT22;38119;52.710;6.398;2023-02-10T09:18:44;2.80;99.90
52125;DHT22;38119;52.710;6.398;2023-02-10T09:21:10;2.80;99.90
52125;DHT22;38119;52.710;6.398;2023-02-10T09:23:36;2.90;99.90
52125;DHT22;38119;52.710;6.398;2023-02-10T09:26:02;3.00;99.90
52125;DHT22;38119;52.710;6.398;2023-02-10T09:28:28;3.00;99.90
52125;DHT22;38119;52.710;6.398;2023-02-10T09:30:55;3.00;99.90
52125;DHT22;38119;52.710;6.398;2023-02-10T09:33:21;3.00;99.90
52125;DHT22;38119;52.710;6.398;2023-02-10T09:35:47;3.00;99.90
52125;DHT22;38119;52.710;6.398;2023-02-10T09:38:13;3.00;99.90
52125;DHT22;38119;52.710;6.398;2023-02-10T09:41:00;3.10;99.90
52125;DHT22;38119;52.710;6.398;2023-02-10T09:43:54;3.10;99.90
52125;DHT22;38119;52.710;6.398;2023-02-10T09:54:32;3.40;99.90
52125;DHT22;38119;52.710;6.398;2023-02-10T09:57:12;3.50;99.90
52125;DHT22;38119;52.710;6.398;2023-02-10T09:59:39;3.60;99.90
52125;DHT22;38119;52.710;6.398;2023-02-10T10:02:21;3.70;99.90
52125;DHT22;38119;52.710;6.398;2023-02-10T10:04:50;3.70;99.90
52125;DHT22;38119;52.710;6.398;2023-02-10T10:09:59;3.90;99.90
52125;DHT22;38119;52.710;6.398;2023-02-10T10:12:27;4.00;99.90
52125;DHT22;38119;52.710;6.398;2023-02-10T10:14:53;4.10;99.90
52125;DHT22;38119;52.710;6.398;2023-02-10T10:23:30;4.30;99.90
52125;DHT22;38119;52.710;6.398;2023-02-10T10:31:33;4.60;99.90
52125;DHT22;38119;52.710;6.398;2023-02-10T10:36:33;4.80;99.90
52125;DHT22;38119;52.710;6.398;2023-02-10T10:41:54;5.00;99.90
52125;DHT22;38119;52.710;6.398;2023-02-10T10:44:21;5.10;99.90
52125;DHT22;38119;52.710;6.398;2023-02-10T10:47:14;5.20;99.90
52125;DHT22;38119;52.710;6.398;2023-02-10T10:49:40;5.30;99.90
52125;DHT22;38119;52.710;6.398;2023-02-10T10:52:31;5.40;99.90
52125;DHT22;38119;52.710;6.398;2023-02-10T10:55:00;5.40;99.90
52125;DHT22;38119;52.710;6.398;2023-02-10T10:57:27;5.50;99.90
52125;DHT22;38119;52.710;6.398;2023-02-10T10:59:58;5.50;99.90
52125;DHT22;38119;52.710;6.398;2023-02-10T11:02:27;5.60;99.90
52125;DHT22;38119;52.710;6.398;2023-02-10T11:05:18;5.60;99.90
52125;DHT22;38119;52.710;6.398;2023-02-10T11:07:50;5.70;99.90
52125;DHT22;38119;52.710;6.398;2023-02-10T11:10:24;5.80;99.90
52125;DHT22;38119;52.710;6.398;2023-02-10T11:12:50;5.80;99.90
52125;DHT22;38119;52.710;6.398;2023-02-10T11:15:39;6.00;99.90
52125;DHT22;38119;52.710;6.398;2023-02-10T11:18:16;6.10;99.90
52125;DHT22;38119;52.710;6.398;2023-02-10T11:20:55;6.20;99.90
52125;DHT22;38119;52.710;6.398;2023-02-10T11:23:21;6.30;99.90
52125;DHT22;38119;52.710;6.398;2023-02-10T11:26:05;6.30;99.90
52125;DHT22;38119;52.710;6.398;2023-02-10T11:28:33;6.50;99.90
52125;DHT22;38119;52.710;6.398;2023-02-10T11:31:04;6.60;99.90
52125;DHT22;38119;52.710;6.398;2023-02-10T11:33:33;6.70;99.90
52125;DHT22;38119;52.710;6.398;2023-02-10T11:36:08;6.80;99.90
52125;DHT22;38119;52.710;6.398;2023-02-10T11:38:35;6.90;99.90
52125;DHT22;38119;52.710;6.398;2023-02-10T11:41:04;7.00;99.90
52125;DHT22;38119;52.710;6.398;2023-02-10T11:43:42;7.10;99.90
52125;DHT22;38119;52.710;6.398;2023-02-10T11:46:26;7.20;99.90
52125;DHT22;38119;52.710;6.398;2023-02-10T11:48:55;7.20;99.90
52125;DHT22;38119;52.710;6.398;2023-02-10T11:51:21;7.30;99.90
52125;DHT22;38119;52.710;6.398;2023-02-10T11:53:48;7.30;99.90
52125;DHT22;38119;52.710;6.398;2023-02-10T11:56:31;7.40;99.90
52125;DHT22;38119;52.710;6.398;2023-02-10T12:01:57;7.30;99.90
52125;DHT22;38119;52.710;6.398;2023-02-10T12:07:15;7.50;99.90
52125;DHT22;38119;52.710;6.398;2023-02-10T12:09:53;7.50;99.90
52125;DHT22;38119;52.710;6.398;2023-02-10T12:15:22;7.70;99.90
52125;DHT22;38119;52.710;6.398;2023-02-10T12:32:01;7.90;99.90
52125;DHT22;38119;52.710;6.398;2023-02-10T12:37:43;8.00;99.90
52125;DHT22;38119;52.710;6.398;2023-02-10T12:43:12;8.10;99.90
52125;DHT22;38119;52.710;6.398;2023-02-10T12:45:54;7.90;99.90
52125;DHT22;38119;52.710;6.398;2023-02-10T12:51:15;7.90;99.90
52125;DHT22;38119;52.710;6.398;2023-02-10T12:53:55;7.90;99.90
52125;DHT22;38119;52.710;6.398;2023-02-10T12:56:30;7.90;99.90
52125;DHT22;38119;52.710;6.398;2023-02-10T13:01:40;7.80;99.90
52125;DHT22;38119;52.710;6.398;2023-02-10T13:04:22;7.90;99.90
52125;DHT22;38119;52.710;6.398;2023-02-10T13:06:59;7.80;99.90
52125;DHT22;38119;52.710;6.398;2023-02-10T13:12:27;7.70;99.90
52125;DHT22;38119;52.710;6.398;2023-02-10T13:15:04;7.70;99.90
52125;DHT22;38119;52.710;6.398;2023-02-10T13:17:39;7.70;99.90
52125;DHT22;38119;52.710;6.398;2023-02-10T13:20:27;7.80;99.90
52125;DHT22;38119;52.710;6.398;2023-02-10T13:23:07;7.80;99.90
52125;DHT22;38119;52.710;6.398;2023-02-10T13:25:54;7.80;99.90
52125;DHT22;38119;52.710;6.398;2023-02-10T13:28:36;7.90;99.90
52125;DHT22;38119;52.710;6.398;2023-02-10T13:34:17;8.00;99.90
52125;DHT22;38119;52.710;6.398;2023-02-10T13:36:47;8.10;99.90
52125;DHT22;38119;52.710;6.398;2023-02-10T13:39:19;8.20;99.90
52125;DHT22;38119;52.710;6.398;2023-02-10T13:41:47;8.30;99.90
52125;DHT22;38119;52.710;6.398;2023-02-10T13:47:19;8.30;99.90
52125;DHT22;38119;52.710;6.398;2023-02-10T13:49:53;8.20;99.90
52125;DHT22;38119;52.710;6.398;2023-02-10T13:52:24;8.20;99.90
52125;DHT22;38119;52.710;6.398;2023-02-10T13:54:55;8.20;99.90
52125;DHT22;38119;52.710;6.398;2023-02-10T13:57:34;8.20;99.90
52125;DHT22;38119;52.710;6.398;2023-02-10T14:02:35;8.20;99.90
52125;DHT22;38119;52.710;6.398;2023-02-10T14:05:01;8.20;99.90
52125;DHT22;38119;52.710;6.398;2023-02-10T14:15:26;8.10;99.90
52125;DHT22;38119;52.710;6.398;2023-02-10T14:18:22;8.10;99.90
52125;DHT22;38119;52.710;6.398;2023-02-10T14:20:59;8.20;99.90
52125;DHT22;38119;52.710;6.398;2023-02-10T14:23:29;8.20;99.90
52125;DHT22;38119;52.710;6.398;2023-02-10T14:25:57;8.30;99.90
52125;DHT22;38119;52.710;6.398;2023-02-10T14:28:28;8.10;99.90
52125;DHT22;38119;52.710;6.398;2023-02-10T14:30:57;8.10;99.90
52125;DHT22;38119;52.710;6.398;2023-02-10T14:33:27;8.30;99.90
52125;DHT22;38119;52.710;6.398;2023-02-10T14:35:55;8.30;99.90
52125;DHT22;38119;52.710;6.398;2023-02-10T14:38:24;8.40;99.90
52125;DHT22;38119;52.710;6.398;2023-02-10T14:40:52;8.50;99.90
52125;DHT22;38119;52.710;6.398;2023-02-10T14:43:22;8.60;99.90
52125;DHT22;38119;52.710;6.398;2023-02-10T14:45:48;8.70;99.90
52125;DHT22;38119;52.710;6.398;2023-02-10T14:48:15;8.70;99.90
52125;DHT22;38119;52.710;6.398;2023-02-10T14:51:00;8.60;99.90
52125;DHT22;38119;52.710;6.398;2023-02-10T14:53:27;8.50;99.90
52125;DHT22;38119;52.710;6.398;2023-02-10T14:56:00;8.40;99.90
52125;DHT22;38119;52.710;6.398;2023-02-10T14:58:27;8.20;99.90
52125;DHT22;38119;52.710;6.398;2023-02-10T15:01:24;8.20;99.90
52125;DHT22;38119;52.710;6.398;2023-02-10T15:03:51;8.00;99.90
52125;DHT22;38119;52.710;6.398;2023-02-10T15:06:18;7.90;99.90
52125;DHT22;38119;52.710;6.398;2023-02-10T15:09:00;7.80;99.90
52125;DHT22;38119;52.710;6.398;2023-02-10T15:11:36;7.80;99.90
52125;DHT22;38119;52.710;6.398;2023-02-10T15:16:51;7.80;99.90
52125;DHT22;38119;52.710;6.398;2023-02-10T15:19:18;7.70;99.90
52125;DHT22;38119;52.710;6.398;2023-02-10T15:21:45;7.70;99.90
52125;DHT22;38119;52.710;6.398;2023-02-10T15:24:37;7.70;99.90
52125;DHT22;38119;52.710;6.398;2023-02-10T15:27:17;7.60;99.90
52125;DHT22;38119;52.710;6.398;2023-02-10T15:29:43;7.60;99.90
52125;DHT22;38119;52.710;6.398;2023-02-10T15:32:20;7.60;99.90
52125;DHT22;38119;52.710;6.398;2023-02-10T15:34:47;7.50;99.90
52125;DHT22;38119;52.710;6.398;2023-02-10T15:37:21;7.50;99.90
52125;DHT22;38119;52.710;6.398;2023-02-10T15:40:00;7.50;99.90
52125;DHT22;38119;52.710;6.398;2023-02-10T15:42:30;7.40;99.90
52125;DHT22;38119;52.710;6.398;2023-02-10T15:45:19;7.50;99.90
52125;DHT22;38119;52.710;6.398;2023-02-10T15:48:07;7.60;99.90
52125;DHT22;38119;52.710;6.398;2023-02-10T15:50:35;7.30;99.90
52125;DHT22;38119;52.710;6.398;2023-02-10T15:53:00;7.50;99.90
52125;DHT22;38119;52.710;6.398;2023-02-10T15:55:39;7.30;99.90
52125;DHT22;38119;52.710;6.398;2023-02-10T15:58:05;7.20;99.90
52125;DHT22;38119;52.710;6.398;2023-02-10T16:00:33;7.20;99.90
52125;DHT22;38119;52.710;6.398;2023-02-10T16:02:59;7.30;99.90
52125;DHT22;38119;52.710;6.398;2023-02-10T16:05:26;7.20;99.90
52125;DHT22;38119;52.710;6.398;2023-02-10T16:07:53;7.10;99.90
52125;DHT22;38119;52.710;6.398;2023-02-10T16:10:22;7.10;99.90
52125;DHT22;38119;52.710;6.398;2023-02-10T16:12:49;7.00;99.90
52125;DHT22;38119;52.710;6.398;2023-02-10T16:15:17;7.00;99.90
52125;DHT22;38119;52.710;6.398;2023-02-10T16:17:47;7.10;99.90
52125;DHT22;38119;52.710;6.398;2023-02-10T16:20:23;6.90;99.90
52125;DHT22;38119;52.710;6.398;2023-02-10T16:22:49;6.80;99.90
52125;DHT22;38119;52.710;6.398;2023-02-10T16:25:16;6.80;99.90
52125;DHT22;38119;52.710;6.398;2023-02-10T16:27:43;6.70;99.90
52125;DHT22;38119;52.710;6.398;2023-02-10T16:30:38;6.80;99.90
52125;DHT22;38119;52.710;6.398;2023-02-10T16:33:04;6.70;99.90
52125;DHT22;38119;52.710;6.398;2023-02-10T16:35:29;6.60;99.90
52125;DHT22;38119;52.710;6.398;2023-02-10T16:37:56;6.60;99.90
52125;DHT22;38119;52.710;6.398;2023-02-10T16:42:49;6.50;99.90
52125;DHT22;38119;52.710;6.398;2023-02-10T16:45:15;6.40;99.90
52125;DHT22;38119;52.710;6.398;2023-02-10T16:47:41;6.30;99.90
52125;DHT22;38119;52.710;6.398;2023-02-10T16:50:09;6.30;99.90
52125;DHT22;38119;52.710;6.398;2023-02-10T16:52:42;6.30;99.90
52125;DHT22;38119;52.710;6.398;2023-02-10T16:55:11;6.30;99.90
52125;DHT22;38119;52.710;6.398;2023-02-10T16:57:37;6.40;99.90
52125;DHT22;38119;52.710;6.398;2023-02-10T17:00:03;6.30;99.90
52125;DHT22;38119;52.710;6.398;2023-02-10T17:02:29;6.30;99.90
52125;DHT22;38119;52.710;6.398;2023-02-10T17:04:54;6.40;99.90
52125;DHT22;38119;52.710;6.398;2023-02-10T17:07:20;6.50;99.90
52125;DHT22;38119;52.710;6.398;2023-02-10T17:09:46;6.60;99.90
52125;DHT22;38119;52.710;6.398;2023-02-10T17:12:12;6.40;99.90
52125;DHT22;38119;52.710;6.398;2023-02-10T17:14:38;6.40;99.90
52125;DHT22;38119;52.710;6.398;2023-02-10T17:17:03;6.40;99.90
52125;DHT22;38119;52.710;6.398;2023-02-10T17:19:29;6.30;99.90
52125;DHT22;38119;52.710;6.398;2023-02-10T17:21:57;6.40;99.90
52125;DHT22;38119;52.710;6.398;2023-02-10T17:24:23;6.40;99.90
52125;DHT22;38119;52.710;6.398;2023-02-10T17:26:48;6.40;99.90
52125;DHT22;38119;52.710;6.398;2023-02-10T17:29:16;6.40;99.90
52125;DHT22;38119;52.710;6.398;2023-02-10T17:31:43;6.10;99.90
52125;DHT22;38119;52.710;6.398;2023-02-10T17:34:09;6.40;99.90
52125;DHT22;38119;52.710;6.398;2023-02-10T17:36:35;6.50;99.90
52125;DHT22;38119;52.710;6.398;2023-02-10T17:39:01;6.50;99.90
52125;DHT22;38119;52.710;6.398;2023-02-10T17:41:28;6.50;99.90